createdAt,value
2023-04-25T00:00:49.888Z,24.77
2023-04-25T00:03:17.124Z,24.69
2023-04-25T00:05:43.937Z,24.64
2023-04-25T00:08:12.024Z,24.60
2023-04-25T00:10:38.696Z,24.56
2023-04-25T00:13:06.204Z,24.49
2023-04-25T00:15:32.684Z,24.45
2023-04-25T00:17:59.250Z,24.38
2023-04-25T00:20:27.255Z,24.32
2023-04-25T00:22:56.664Z,24.29
2023-04-25T00:25:23.163Z,24.24
2023-04-25T00:27:49.522Z,24.19
2023-04-25T00:30:15.962Z,24.16
2023-04-25T00:32:42.322Z,24.12
2023-04-25T00:35:10.320Z,24.09
2023-04-25T00:37:36.829Z,24.09
2023-04-25T00:40:07.044Z,24.09
2023-04-25T00:42:33.435Z,24.06
2023-04-25T00:45:00.272Z,24.03
2023-04-25T00:47:27.370Z,24.01
2023-04-25T00:49:54.384Z,24.01
2023-04-25T00:52:21.359Z,23.99
2023-04-25T00:54:48.134Z,23.97
2023-04-25T00:57:14.517Z,23.96
2023-04-25T00:59:45.725Z,23.97
2023-04-25T01:02:12.152Z,23.99
2023-04-25T01:04:38.866Z,23.99
2023-04-25T01:07:05.599Z,24.02
2023-04-25T01:09:32.933Z,24.04
2023-04-25T01:11:59.342Z,24.03
2023-04-25T01:14:25.742Z,24.03
2023-04-25T01:16:53.841Z,24.02
2023-04-25T01:19:20.712Z,24.01
2023-04-25T01:21:47.352Z,23.98
2023-04-25T01:24:14.260Z,23.97
2023-04-25T01:26:45.262Z,23.95
2023-04-25T01:29:11.787Z,23.97
2023-04-25T01:31:39.349Z,23.95
2023-04-25T01:34:06.138Z,23.93
2023-04-25T01:36:32.917Z,23.92
2023-04-25T01:39:01.582Z,23.92
2023-04-25T01:41:28.590Z,23.90
2023-04-25T01:43:55.248Z,23.88
2023-04-25T01:46:22.259Z,23.86
2023-04-25T01:48:49.003Z,23.86
2023-04-25T01:51:16.549Z,23.85
2023-04-25T01:53:43.937Z,23.80
2023-04-25T01:56:10.916Z,23.80
2023-04-25T01:58:37.339Z,23.78
2023-04-25T02:01:06.369Z,23.77
2023-04-25T02:03:40.984Z,23.76
2023-04-25T02:06:13.158Z,23.76
2023-04-25T02:08:43.621Z,23.75
2023-04-25T02:11:12.050Z,23.73
2023-04-25T02:13:44.537Z,23.73
2023-04-25T02:16:22.531Z,23.70
2023-04-25T02:18:49.019Z,23.70
2023-04-25T02:21:16.109Z,23.69
2023-04-25T02:23:43.607Z,23.70
2023-04-25T02:26:09.979Z,23.67
2023-04-25T02:28:36.358Z,23.65
2023-04-25T02:31:04.888Z,23.65
2023-04-25T02:33:31.297Z,23.65
2023-04-25T02:35:58.339Z,23.64
2023-04-25T02:38:25.256Z,23.64
2023-04-25T02:40:51.621Z,23.62
2023-04-25T02:43:18.349Z,23.62
2023-04-25T02:45:44.789Z,23.63
2023-04-25T02:48:12.274Z,23.64
2023-04-25T02:50:38.793Z,23.65
2023-04-25T02:53:05.175Z,23.68
2023-04-25T02:55:37.346Z,23.69
2023-04-25T02:58:05.553Z,23.72
2023-04-25T03:00:44.562Z,23.73
2023-04-25T03:03:11.715Z,23.73
2023-04-25T03:05:38.158Z,23.72
2023-04-25T03:08:04.821Z,23.74
2023-04-25T03:10:32.998Z,23.72
2023-04-25T03:13:03.658Z,23.71
2023-04-25T03:15:30.280Z,23.71
2023-04-25T03:17:56.694Z,23.69
2023-04-25T03:20:23.949Z,23.67
2023-04-25T03:22:50.414Z,23.65
2023-04-25T03:25:19.073Z,23.63
2023-04-25T03:27:46.290Z,23.61
2023-04-25T03:30:12.720Z,23.60
2023-04-25T03:32:40.762Z,23.59
2023-04-25T03:35:07.564Z,23.58
2023-04-25T03:37:33.990Z,23.60
2023-04-25T03:40:00.493Z,23.59
2023-04-25T03:42:37.063Z,23.61
2023-04-25T03:45:05.028Z,23.61
2023-04-25T03:47:31.474Z,23.61
2023-04-25T03:49:58.197Z,23.61
2023-04-25T03:52:24.685Z,23.60
2023-04-25T03:54:51.093Z,23.59
2023-04-25T03:57:19.946Z,23.57
2023-04-25T03:59:46.319Z,23.57
2023-04-25T04:02:14.531Z,23.53
2023-04-25T04:04:41.793Z,23.54
2023-04-25T04:07:10.385Z,23.52
2023-04-25T04:09:41.324Z,23.52
2023-04-25T04:12:12.648Z,23.53
2023-04-25T04:14:41.377Z,23.51
2023-04-25T04:17:07.911Z,23.51
2023-04-25T04:19:34.396Z,23.51
2023-04-25T04:22:09.210Z,23.51
2023-04-25T04:24:36.033Z,23.54
2023-04-25T04:27:06.776Z,23.55
2023-04-25T04:29:38.188Z,23.58
2023-04-25T04:32:26.298Z,23.56
2023-04-25T04:34:55.789Z,23.58
2023-04-25T04:37:23.707Z,23.59
2023-04-25T04:39:51.102Z,23.59
2023-04-25T04:42:25.133Z,23.59
2023-04-25T04:45:28.477Z,23.59
2023-04-25T04:48:07.423Z,23.57
2023-04-25T04:50:37.703Z,23.58
2023-04-25T04:53:26.002Z,23.55
2023-04-25T04:56:10.749Z,23.53
2023-04-25T04:58:51.316Z,23.53
2023-04-25T05:01:39.081Z,23.51
2023-04-25T05:04:36.901Z,23.49
2023-04-25T05:07:13.405Z,23.49
2023-04-25T05:10:02.511Z,23.48
2023-04-25T05:12:43.533Z,23.48
2023-04-25T05:15:13.043Z,23.47
2023-04-25T05:18:00.151Z,23.47
2023-04-25T05:20:56.506Z,23.46
2023-04-25T05:23:36.408Z,23.46
2023-04-25T05:26:21.542Z,23.45
2023-04-25T05:29:01.230Z,23.45
2023-04-25T05:31:41.920Z,23.43
2023-04-25T05:34:11.641Z,23.44
2023-04-25T05:36:49.343Z,23.44
2023-04-25T05:39:18.255Z,23.41
2023-04-25T05:42:07.529Z,23.42
2023-04-25T05:44:57.877Z,23.39
2023-04-25T05:47:31.240Z,23.39
2023-04-25T05:50:04.343Z,23.36
2023-04-25T05:52:56.708Z,23.41
2023-04-25T05:55:35.786Z,23.45
2023-04-25T05:58:14.682Z,23.48
2023-04-25T06:00:42.431Z,23.49
2023-04-25T06:03:10.746Z,23.50
2023-04-25T06:05:37.532Z,23.51
2023-04-25T06:08:04.044Z,23.52
2023-04-25T06:10:30.547Z,23.52
2023-04-25T06:12:56.994Z,23.52
2023-04-25T06:15:28.398Z,23.54
2023-04-25T06:17:55.895Z,23.53
2023-04-25T06:20:24.933Z,23.53
2023-04-25T06:22:53.431Z,23.54
2023-04-25T06:25:21.988Z,23.53
2023-04-25T06:27:48.540Z,23.52
2023-04-25T06:30:15.174Z,23.50
2023-04-25T06:32:41.862Z,23.50
2023-04-25T06:35:09.362Z,23.50
2023-04-25T06:37:35.865Z,23.48
2023-04-25T06:40:03.387Z,23.49
2023-04-25T06:42:29.794Z,23.48
2023-04-25T06:44:59.874Z,23.47
2023-04-25T06:47:28.708Z,23.46
2023-04-25T06:49:55.114Z,23.45
2023-04-25T06:52:21.912Z,23.44
2023-04-25T06:54:48.962Z,23.44
2023-04-25T06:57:46.224Z,23.44
2023-04-25T07:00:45.034Z,23.42
2023-04-25T07:03:11.689Z,23.38
2023-04-25T07:05:38.427Z,23.36
2023-04-25T07:08:04.936Z,23.37
2023-04-25T07:10:31.403Z,23.36
2023-04-25T07:13:02.269Z,23.37
2023-04-25T07:15:28.726Z,23.39
2023-04-25T07:17:55.790Z,23.41
2023-04-25T07:20:22.264Z,23.39
2023-04-25T07:22:48.698Z,23.34
2023-04-25T07:25:15.297Z,23.34
2023-04-25T07:27:41.966Z,23.38
2023-04-25T07:30:14.586Z,23.41
2023-04-25T07:32:41.163Z,23.43
2023-04-25T07:35:08.695Z,23.43
2023-04-25T07:37:36.415Z,23.43
2023-04-25T07:40:10.517Z,23.44
2023-04-25T07:42:41.594Z,23.42
2023-04-25T07:45:10.163Z,23.40
2023-04-25T07:47:37.756Z,23.40
2023-04-25T07:50:04.515Z,23.39
2023-04-25T07:52:32.135Z,23.38
2023-04-25T07:55:07.182Z,23.37
2023-04-25T07:57:54.117Z,23.35
2023-04-25T08:00:20.709Z,23.35
2023-04-25T08:02:53.990Z,23.33
2023-04-25T08:05:22.957Z,23.32
2023-04-25T08:07:55.374Z,23.31
2023-04-25T08:10:23.656Z,23.30
2023-04-25T08:12:50.205Z,23.28
2023-04-25T08:15:16.572Z,23.28
2023-04-25T08:17:44.819Z,23.26
2023-04-25T08:20:12.546Z,23.26
2023-04-25T08:22:39.303Z,23.24
2023-04-25T08:25:24.653Z,23.24
2023-04-25T08:27:51.461Z,23.22
2023-04-25T08:30:21.794Z,23.20
2023-04-25T08:32:48.340Z,23.20
2023-04-25T08:35:24.478Z,23.19
2023-04-25T08:37:52.242Z,23.20
2023-04-25T08:40:27.054Z,23.19
2023-04-25T08:42:57.970Z,23.20
2023-04-25T08:45:26.150Z,23.19
2023-04-25T08:47:53.872Z,23.20
2023-04-25T08:50:23.683Z,23.20
2023-04-25T08:52:54.543Z,23.22
2023-04-25T08:55:22.843Z,23.21
2023-04-25T08:57:55.801Z,23.21
2023-04-25T09:00:23.133Z,23.21
2023-04-25T09:02:50.009Z,23.19
2023-04-25T09:05:17.035Z,23.21
2023-04-25T09:07:48.552Z,23.20
2023-04-25T09:10:20.766Z,23.18
2023-04-25T09:13:03.554Z,23.18
2023-04-25T09:15:30.964Z,23.17
2023-04-25T09:18:10.716Z,23.16
2023-04-25T09:23:16.122Z,23.13
2023-04-25T09:25:44.231Z,23.11
2023-04-25T09:28:10.804Z,23.11
2023-04-25T09:30:37.707Z,23.12
2023-04-25T09:33:34.281Z,23.11
2023-04-25T09:36:06.225Z,23.11
2023-04-25T09:38:48.332Z,23.11
2023-04-25T09:41:26.157Z,23.10
2023-04-25T09:43:58.928Z,23.09
2023-04-25T09:46:36.380Z,23.09
2023-04-25T09:49:08.276Z,23.10
2023-04-25T09:51:58.380Z,23.08
2023-04-25T09:54:27.706Z,23.07
2023-04-25T09:57:18.968Z,23.07
2023-04-25T09:59:50.588Z,23.09
2023-04-25T10:02:21.144Z,23.10
2023-04-25T10:04:53.407Z,23.11
2023-04-25T10:07:27.234Z,23.10
2023-04-25T10:10:04.293Z,23.11
2023-04-25T10:12:35.212Z,23.14
2023-04-25T10:15:05.024Z,23.13
2023-04-25T10:17:37.774Z,23.14
2023-04-25T10:20:12.898Z,23.15
2023-04-25T10:22:46.888Z,23.16
2023-04-25T10:25:14.756Z,23.15
2023-04-25T10:27:41.291Z,23.16
2023-04-25T10:30:16.109Z,23.16
2023-04-25T10:32:44.693Z,23.14
2023-04-25T10:35:16.705Z,23.13
2023-04-25T10:37:59.644Z,23.12
2023-04-25T10:40:26.498Z,23.12
2023-04-25T10:42:55.316Z,23.11
2023-04-25T10:45:21.918Z,23.12
2023-04-25T10:47:49.208Z,23.12
2023-04-25T10:50:19.459Z,23.12
2023-04-25T10:52:45.829Z,23.09
2023-04-25T10:55:12.316Z,23.07
2023-04-25T10:57:40.575Z,23.06
2023-04-25T11:00:17.538Z,23.05
2023-04-25T11:02:46.277Z,23.01
2023-04-25T11:05:30.794Z,23.00
2023-04-25T11:08:07.884Z,23.02
2023-04-25T11:10:37.899Z,23.06
2023-04-25T11:13:04.611Z,23.07
2023-04-25T11:15:31.158Z,23.10
2023-04-25T11:17:57.600Z,23.12
2023-04-25T11:20:27.188Z,23.14
2023-04-25T11:22:53.833Z,23.16
2023-04-25T11:25:21.043Z,23.16
2023-04-25T11:27:58.782Z,23.17
2023-04-25T11:30:27.108Z,23.16
2023-04-25T11:32:54.235Z,23.16
2023-04-25T11:35:23.720Z,23.16
2023-04-25T11:37:51.050Z,23.16
2023-04-25T11:40:17.992Z,23.15
2023-04-25T11:42:46.195Z,23.14
2023-04-25T11:45:13.319Z,23.14
2023-04-25T11:47:40.187Z,23.15
2023-04-25T11:50:08.922Z,23.14
2023-04-25T11:52:39.126Z,23.14
2023-04-25T11:55:11.488Z,23.14
2023-04-25T11:57:42.388Z,23.11
2023-04-25T12:00:16.514Z,23.10
2023-04-25T12:02:45.543Z,23.10
2023-04-25T12:05:30.318Z,23.09
2023-04-25T12:07:58.394Z,23.11
2023-04-25T12:10:26.573Z,23.13
2023-04-25T12:12:52.958Z,23.12
2023-04-25T12:15:26.756Z,23.13
2023-04-25T12:17:55.306Z,23.14
2023-04-25T12:20:26.725Z,23.14
2023-04-25T12:22:53.784Z,23.12
2023-04-25T12:25:42.857Z,23.09
2023-04-25T12:28:24.644Z,23.11
2023-04-25T12:30:58.428Z,23.24
2023-04-25T12:33:29.645Z,23.34
2023-04-25T12:35:56.917Z,23.45
2023-04-25T12:38:31.340Z,23.53
2023-04-25T12:40:59.237Z,23.64
2023-04-25T12:43:25.911Z,23.70
2023-04-25T12:45:54.158Z,23.77
2023-04-25T12:48:21.907Z,23.84
2023-04-25T12:50:52.712Z,23.90
2023-04-25T12:53:20.749Z,23.95
2023-04-25T12:55:47.688Z,23.98
2023-04-25T12:58:15.281Z,24.01
2023-04-25T13:00:45.891Z,24.05
2023-04-25T13:03:13.432Z,24.07
2023-04-25T13:05:40.651Z,24.12
2023-04-25T13:08:07.125Z,24.17
2023-04-25T13:10:34.851Z,24.19
2023-04-25T13:13:02.371Z,24.23
2023-04-25T13:15:29.165Z,24.27
2023-04-25T13:17:56.411Z,24.30
2023-04-25T13:20:23.376Z,24.34
2023-04-25T13:22:49.815Z,24.38
2023-04-25T13:25:17.235Z,24.42
2023-04-25T13:27:47.342Z,24.45
2023-04-25T13:30:13.855Z,24.47
2023-04-25T13:32:40.963Z,24.50
2023-04-25T13:35:11.018Z,24.53
2023-04-25T13:37:38.184Z,24.58
2023-04-25T13:40:07.479Z,24.62
2023-04-25T13:42:33.841Z,24.64
2023-04-25T13:45:00.237Z,24.67
2023-04-25T13:47:27.998Z,24.70
2023-04-25T13:49:55.344Z,24.73
2023-04-25T13:52:21.747Z,24.74
2023-04-25T13:54:48.135Z,24.75
2023-04-25T13:57:14.572Z,24.76
2023-04-25T13:59:41.665Z,24.76
2023-04-25T14:02:08.443Z,24.76
2023-04-25T14:04:35.106Z,24.75
2023-04-25T14:07:03.081Z,24.76
2023-04-25T14:09:29.780Z,24.76
2023-04-25T14:11:57.246Z,24.77
2023-04-25T14:14:24.476Z,24.77
2023-04-25T14:16:51.325Z,24.79
2023-04-25T14:19:20.318Z,24.80
2023-04-25T14:21:48.415Z,24.82
2023-04-25T14:24:14.903Z,24.83
2023-04-25T14:26:41.577Z,24.83
2023-04-25T14:29:09.543Z,24.82
2023-04-25T14:31:36.292Z,24.81
2023-04-25T14:34:03.559Z,24.81
2023-04-25T14:36:29.898Z,24.81
2023-04-25T14:38:56.321Z,24.82
2023-04-25T14:41:23.953Z,24.80
2023-04-25T14:43:50.502Z,24.80
2023-04-25T14:46:17.424Z,24.80
2023-04-25T14:48:43.802Z,24.80
2023-04-25T14:51:10.293Z,24.80
2023-04-25T14:53:37.015Z,24.79
2023-04-25T14:56:03.602Z,24.79
2023-04-25T14:58:30.109Z,24.80
2023-04-25T15:00:56.680Z,24.78
2023-04-25T15:03:23.947Z,24.77
2023-04-25T15:05:50.469Z,24.75
2023-04-25T15:08:16.814Z,24.74
2023-04-25T15:10:43.253Z,24.76
2023-04-25T15:13:11.396Z,24.77
2023-04-25T15:15:37.793Z,24.78
2023-04-25T15:18:04.327Z,24.79
2023-04-25T15:20:30.966Z,24.79
2023-04-25T15:22:57.897Z,24.81
2023-04-25T15:25:24.549Z,24.82
2023-04-25T15:27:52.551Z,24.84
2023-04-25T15:30:20.438Z,24.85
2023-04-25T15:32:47.806Z,24.88
2023-04-25T15:35:15.794Z,24.91
2023-04-25T15:37:42.442Z,24.91
2023-04-25T15:40:12.020Z,24.92
2023-04-25T15:42:47.884Z,24.93
2023-04-25T15:45:17.368Z,24.96
2023-04-25T15:47:44.355Z,25.00
2023-04-25T15:50:11.886Z,25.01
2023-04-25T15:52:38.731Z,25.02
2023-04-25T15:55:06.340Z,25.02
2023-04-25T15:57:34.199Z,25.06
2023-04-25T16:00:01.032Z,25.10
2023-04-25T16:02:27.763Z,25.14
2023-04-25T16:04:54.650Z,25.14
2023-04-25T16:07:21.052Z,25.16
2023-04-25T16:09:47.406Z,25.16
2023-04-25T16:12:13.828Z,25.19
2023-04-25T16:14:40.473Z,25.20
2023-04-25T16:17:06.877Z,25.18
2023-04-25T16:19:33.244Z,25.17
2023-04-25T16:21:59.673Z,25.17
2023-04-25T16:24:26.058Z,25.16
2023-04-25T16:26:52.424Z,25.16
2023-04-25T16:29:18.834Z,25.17
2023-04-25T16:31:47.092Z,25.15
2023-04-25T16:34:15.138Z,25.14
2023-04-25T16:36:41.700Z,25.13
2023-04-25T16:39:08.621Z,25.11
2023-04-25T16:41:35.171Z,25.09
2023-04-25T16:44:01.551Z,25.10
2023-04-25T16:46:27.939Z,25.14
2023-04-25T16:48:54.422Z,25.18
2023-04-25T16:51:20.881Z,25.21
2023-04-25T16:53:48.354Z,25.25
2023-04-25T16:56:14.890Z,25.28
2023-04-25T16:58:41.383Z,25.31
2023-04-25T17:01:08.080Z,25.34
2023-04-25T17:03:35.654Z,25.35
2023-04-25T17:06:02.467Z,25.36
2023-04-25T17:08:29.426Z,25.34
2023-04-25T17:10:55.821Z,25.31
2023-04-25T17:13:22.293Z,25.28
2023-04-25T17:15:57.505Z,25.26
2023-04-25T17:18:24.639Z,25.24
2023-04-25T17:20:51.374Z,25.23
2023-04-25T17:23:19.360Z,25.24
2023-04-25T17:25:45.861Z,25.24
2023-04-25T17:28:12.979Z,25.25
2023-04-25T17:30:39.664Z,25.22
2023-04-25T17:33:06.898Z,25.21
2023-04-25T17:35:33.858Z,25.19
2023-04-25T17:38:00.471Z,25.18
2023-04-25T17:40:26.974Z,25.17
2023-04-25T17:42:53.335Z,25.17
2023-04-25T17:45:19.731Z,25.14
2023-04-25T17:47:46.687Z,25.13
2023-04-25T17:50:13.239Z,25.13
2023-04-25T17:52:39.649Z,25.11
2023-04-25T17:55:06.919Z,25.11
2023-04-25T17:57:33.337Z,25.10
2023-04-25T17:59:59.828Z,25.09
2023-04-25T18:02:27.237Z,25.07
2023-04-25T18:04:54.083Z,25.07
2023-04-25T18:07:20.996Z,25.05
2023-04-25T18:09:47.452Z,25.04
2023-04-25T18:12:15.199Z,25.03
2023-04-25T18:14:41.626Z,25.00
2023-04-25T18:17:08.838Z,24.99
2023-04-25T18:19:35.498Z,24.98
2023-04-25T18:22:02.111Z,24.97
2023-04-25T18:24:29.898Z,24.96
2023-04-25T18:27:00.142Z,24.94
2023-04-25T18:29:33.745Z,24.95
2023-04-25T18:32:00.847Z,24.95
2023-04-25T18:34:27.712Z,24.93
2023-04-25T18:36:56.167Z,24.96
2023-04-25T18:39:24.249Z,24.98
2023-04-25T18:41:58.186Z,25.00
2023-04-25T18:44:33.619Z,25.01
2023-04-25T18:47:00.037Z,25.02
2023-04-25T18:49:27.273Z,25.04
2023-04-25T18:51:56.048Z,25.04
2023-04-25T18:54:22.691Z,25.04
2023-04-25T18:56:49.051Z,25.04
2023-04-25T18:59:17.056Z,25.05
2023-04-25T19:01:43.991Z,25.05
2023-04-25T19:04:10.625Z,25.05
2023-04-25T19:06:37.174Z,25.05
2023-04-25T19:09:03.607Z,25.05
2023-04-25T19:11:29.974Z,25.06
2023-04-25T19:13:56.784Z,25.06
2023-04-25T19:16:23.750Z,25.05
2023-04-25T19:18:52.399Z,25.04
2023-04-25T19:21:19.178Z,25.04
2023-04-25T19:23:46.299Z,24.99
2023-04-25T19:26:13.208Z,24.96
2023-04-25T19:28:39.707Z,24.96
2023-04-25T19:31:07.181Z,24.96
2023-04-25T19:33:33.628Z,24.98
2023-04-25T19:35:59.962Z,24.97
2023-04-25T19:38:26.359Z,25.00
2023-04-25T19:40:52.719Z,25.01
2023-04-25T19:43:19.134Z,25.01
2023-04-25T19:45:45.754Z,25.03
2023-04-25T19:48:13.924Z,25.04
2023-04-25T19:50:41.403Z,25.06
2023-04-25T19:53:07.787Z,25.08
2023-04-25T19:55:34.184Z,25.08
2023-04-25T19:58:01.805Z,25.08
2023-04-25T20:00:28.163Z,25.11
2023-04-25T20:02:55.417Z,25.13
2023-04-25T20:05:25.071Z,25.16
2023-04-25T20:07:51.688Z,25.20
2023-04-25T20:10:18.199Z,25.23
2023-04-25T20:12:44.957Z,25.26
2023-04-25T20:15:12.238Z,25.24
2023-04-25T20:17:41.416Z,25.23
2023-04-25T20:20:09.883Z,25.20
2023-04-25T20:22:38.477Z,25.19
2023-04-25T20:25:06.469Z,25.17
2023-04-25T20:27:33.088Z,25.19
2023-04-25T20:30:05.032Z,25.19
2023-04-25T20:32:34.633Z,25.17
2023-04-25T20:35:03.855Z,25.16
2023-04-25T20:37:33.682Z,25.16
2023-04-25T20:40:01.286Z,25.17
2023-04-25T20:42:27.746Z,25.19
2023-04-25T20:44:54.607Z,25.19
2023-04-25T20:47:21.910Z,25.20
2023-04-25T20:49:48.576Z,25.21
2023-04-25T20:52:16.880Z,25.22
2023-04-25T20:54:43.466Z,25.24
2023-04-25T20:57:10.066Z,25.23
2023-04-25T20:59:37.173Z,25.24
2023-04-25T21:02:04.956Z,25.25
2023-04-25T21:04:31.549Z,25.25
2023-04-25T21:06:57.961Z,25.24
2023-04-25T21:09:24.693Z,25.26
2023-04-25T21:11:51.453Z,25.27
2023-04-25T21:14:18.456Z,25.27
2023-04-25T21:16:44.871Z,25.30
2023-04-25T21:19:11.212Z,25.29
2023-04-25T21:21:37.597Z,25.27
2023-04-25T21:24:04.100Z,25.28
2023-04-25T21:26:31.519Z,25.27
2023-04-25T21:28:57.909Z,25.28
2023-04-25T21:31:24.293Z,25.28
2023-04-25T21:33:50.681Z,25.29
2023-04-25T21:36:17.501Z,25.28
2023-04-25T21:38:44.162Z,25.29
2023-04-25T21:41:10.754Z,25.29
2023-04-25T21:43:37.127Z,25.29
2023-04-25T21:46:20.877Z,25.30
2023-04-25T21:48:48.382Z,25.28
2023-04-25T21:51:14.826Z,25.28
2023-04-25T21:53:42.073Z,25.30
2023-04-25T21:56:08.506Z,25.32
2023-04-25T21:58:34.860Z,25.32
2023-04-25T22:01:04.938Z,25.33
2023-04-25T22:03:32.627Z,25.33
2023-04-25T22:05:59.144Z,25.32
2023-04-25T22:08:25.556Z,25.35
2023-04-25T22:10:55.022Z,25.33
2023-04-25T22:13:22.276Z,25.33
2023-04-25T22:15:48.777Z,25.32
2023-04-25T22:18:16.171Z,25.33
2023-04-25T22:20:44.184Z,25.33
2023-04-25T22:23:11.832Z,25.34
2023-04-25T22:25:39.122Z,25.35
2023-04-25T22:28:05.546Z,25.34
2023-04-25T22:30:32.342Z,25.32
2023-04-25T22:32:59.332Z,25.32
2023-04-25T22:35:29.602Z,25.29
2023-04-25T22:38:00.041Z,25.30
2023-04-25T22:40:26.394Z,25.31
2023-04-25T22:42:52.843Z,25.34
2023-04-25T22:45:19.760Z,25.35
2023-04-25T22:47:46.266Z,25.35
2023-04-25T22:50:13.796Z,25.35
2023-04-25T22:52:40.406Z,25.36
2023-04-25T22:55:07.047Z,25.35
2023-04-25T22:57:33.404Z,25.35
2023-04-25T22:59:59.869Z,25.36
2023-04-25T23:02:27.206Z,25.35
2023-04-25T23:04:54.742Z,25.34
2023-04-25T23:07:21.150Z,25.35
2023-04-25T23:09:47.694Z,25.35
2023-04-25T23:12:17.753Z,25.34
2023-04-25T23:14:44.278Z,25.34
2023-04-25T23:17:11.415Z,25.36
2023-04-25T23:19:38.161Z,25.35
2023-04-25T23:22:05.776Z,25.35
2023-04-25T23:24:37.552Z,25.35
2023-04-25T23:27:03.965Z,25.37
2023-04-25T23:29:32.067Z,25.32
2023-04-25T23:31:59.296Z,25.34
2023-04-25T23:34:25.641Z,25.28
2023-04-25T23:36:51.996Z,25.20
2023-04-25T23:39:18.833Z,25.10
2023-04-25T23:41:45.193Z,25.03
2023-04-25T23:44:12.255Z,24.93
2023-04-25T23:46:38.789Z,24.80
2023-04-25T23:49:05.445Z,24.77
2023-04-25T23:51:32.184Z,24.79
2023-04-25T23:53:58.552Z,24.81
2023-04-25T23:56:24.905Z,24.82
2023-04-25T23:58:51.489Z,24.81
